Aviation Digital Data Service (ADDS)

Output produced by METARs form (1213 UTC 22 September 2014)
found at http://www.aviationweather.gov/adds/metars/
 
KJST 221154Z AUTO 31012G18KT 10SM OVC010 09/07 A3002 RMK AO2 CIG 009V014 SLP165 60002 70036 T00890067 10111 20089 53033
KJST 221138Z AUTO 30014G20KT 10SM OVC010 09/07 A3001 RMK AO2 CIG 007V014 T00890067
KJST 221054Z AUTO 29017G21KT 10SM BKN009 OVC014 09/07 A2997 RMK AO2 CIG 007V012 SLP147 T00890072
KJST 221035Z AUTO 27011KT 10SM BKN008 BKN014 OVC025 09/07 A2996 RMK AO2 CIG 007V012 T00940072
KJST 221016Z AUTO 29008G17KT 10SM BKN010 BKN015 OVC023 09/07 A2996 RMK AO2 CIG 007V012 T00890072
KJST 221008Z AUTO 30010G22KT 10SM SCT010 BKN015 OVC023 09/07 A2995 RMK AO2 T00890072
KJST 220954Z AUTO 30018G25KT 10SM BKN012 OVC024 09/07 A2994 RMK AO2 SLP136 T00940072
KJST 220918Z AUTO 30012G19KT 10SM BKN012 OVC016 09/07 A2992 RMK AO2 T00940072
KJST 220854Z AUTO 30013G22KT 10SM OVC008 09/08 A2991 RMK AO2 CIG 006V012 SLP127 60002 T00940078 53014
KJST 220816Z AUTO 30016G22KT 10SM BKN009 BKN014 OVC022 10/08 A2989 RMK AO2 CIG 007V013 T01000078
KJST 220754Z AUTO 30015G24KT 10SM BKN011 BKN019 OVC024 10/08 A2988 RMK AO2 PK WND 30026/0722 SLP111 T01000078
KJST 220733Z AUTO 30019G25KT 10SM BKN014 OVC021 10/08 A2987 RMK AO2 PK WND 30026/0722 T01000078
KJST 220711Z AUTO 30016G23KT 10SM SCT009 BKN015 OVC023 11/08 A2987 RMK AO2 T01060083
KJST 220654Z AUTO 30015G22KT 10SM SCT006 BKN011 OVC017 11/09 A2987 RMK AO2 RAB06E42 SLP109 P0002 T01060089
KJST 220554Z AUTO 31012G21KT 10SM BKN009 OVC013 11/09 A2987 RMK AO2 PK WND 30027/0509 RAE18 CIG 005V011 SLP108 P0000 60000 T01110094 10167 20111 53013
KJST 220523Z AUTO 30016KT 10SM BKN008 OVC014 11/09 A2986 RMK AO2 PK WND 30027/0509 RAE18 CIG 005V012 P0000 T01110094
KJST 220505Z AUTO 30012G20KT 8SM -RA FEW008 BKN012 OVC019 12/09 A2986 RMK AO2 P0000 T01170094
KJST 220454Z AUTO 29013G24KT 9SM -RA SCT016 OVC021 12/09 A2985 RMK AO2 PK WND 29027/0439 RAB53 SLP101 P0000 T01220089 402280122
KJST 220435Z AUTO 29018G26KT 10SM BKN023 OVC029 13/08 A2984 RMK AO2 PK WND 29026/0435 T01280083
KJST 220354Z AUTO 28013G20KT 10SM SCT030 BKN035 13/08 A2984 RMK AO2 PK WND 26031/0330 SLP096 T01280078
KJST 220254Z AUTO 26014G20KT 10SM CLR 13/08 A2983 RMK AO2 SLP093 T01330078 51023
KJST 220154Z AUTO 26008KT 10SM FEW060 14/09 A2981 RMK AO2 SLP087 T01440089
KJST 220054Z AUTO 29014KT 10SM CLR 16/11 A2979 RMK AO2 SLP079 T01610106
KJST 212354Z AUTO 27009KT 10SM CLR 17/14 A2976 RMK AO2 SLP068 60028 T01670139 10228 20161 53013
KJST 212254Z AUTO 25008KT 10SM FEW048 SCT070 19/14 A2973 RMK AO2 SLP057 T01890139
KJST 212154Z AUTO 23007KT 10SM FEW110 18/15 A2971 RMK AO2 PK WND 30028/2104 RAE29 SLP051 P0022 T01830150
KJST 212128Z AUTO 26007KT 10SM -RA FEW023 BKN055 OVC070 17/14 A2972 RMK AO2 PK WND 30028/2104 P0022 T01670139
KJST 212121Z AUTO 23009G19KT 2SM -RA BR FEW023 BKN050 OVC065 16/14 A2972 RMK AO2 PK WND 30028/2104 P0022 T01610139
KJST 212112Z AUTO 27015G28KT 3/4SM +RA BR FEW019 BKN039 OVC070 16/14 A2974 RMK AO2 PK WND 30028/2104 P0019 T01610144
KJST 212054Z AUTO 27009G19KT 2 1/2SM RA FEW050 OVC070 18/13 A2972 RMK AO2 RAB31 SLP055 P0006 60006 T01780133 55020
KJST 211954Z AUTO 25017G22KT 10SM FEW028 FEW033 22/14 A2971 RMK AO2 SLP050 T02220144
KJST 211913Z AUTO 25011G18KT 10SM SCT023 22/16 A2973 RMK AO2 T02220156
KJST 211854Z AUTO 23011KT 10SM SCT020 BKN025 22/16 A2974 RMK AO2 SLP058 T02170161
KJST 211847Z AUTO 24013G21KT 10SM SCT020 BKN025 BKN031 22/16 A2974 RMK AO2 T02170161
KJST 211811Z AUTO 25014G18KT 10SM SCT016 BKN047 OVC055 21/16 A2977 RMK AO2 T02060161
KJST 211802Z AUTO 24015G20KT 9SM BKN016 BKN031 OVC055 20/16 A2977 RMK AO2 T02000161
KJST 211754Z AUTO 24008G19KT 9SM SCT013 BKN031 OVC048 21/17 A2978 RMK AO2 RAB35E45 SLP073 P0000 60006 T02060167 10222 20172 56020
KJST 211731Z AUTO 25014KT 7SM BKN013 OVC022 20/17 A2979 RMK AO2 T02000172
KJST 211722Z AUTO 24010KT 7SM OVC015 20/17 A2979 RMK AO2 T02000172
KJST 211654Z AUTO 24012KT 8SM BKN013 OVC020 20/18 A2980 RMK AO2 SLP080 T02000178
KJST 211634Z AUTO 24009KT 10SM BKN014 OVC020 20/18 A2981 RMK AO2 T02000178
KJST 211616Z AUTO 22011KT 10SM BKN021 BKN033 OVC095 21/18 A2981 RMK AO2 T02060178
KJST 211554Z AUTO 23011G18KT 10SM FEW043 BKN100 OVC110 20/18 A2982 RMK AO2 RAB01E32 SLP087 P0006 T02000178
KJST 211523Z AUTO 23008KT 4SM RA BR FEW023 BKN075 OVC090 18/17 A2984 RMK AO2 RAB01 P0006 T01830167
KJST 211516Z AUTO 25010G19KT 2 1/2SM RA SCT026 BKN070 OVC080 19/16 A2984 RMK AO2 RAB01 P0005 T01890161
KJST 211454Z AUTO 27010G20KT 10SM FEW026 SCT085 21/16 A2984 RMK AO2 SLP093 60000 T02110156 56019
KJST 211354Z AUTO 21010KT 10SM FEW026 20/15 A2985 RMK AO2 SLP097 T02000150
KJST 211254Z AUTO 19012KT 10SM FEW022 SCT060 18/14 A2988 RMK AO2 RAB1159E08 SLP108 P0000 T01830139
KJST 211154Z AUTO 21009KT 10SM FEW026 BKN060 17/13 A2990 RMK AO2 SLP116 T01720133 10172 20150 55004
KJST 211054Z AUTO 20010KT 10SM CLR 17/13 A2989 RMK AO2 SLP110 T01670128
KJST 210954Z AUTO 20009KT 10SM FEW025 17/13 A2990 RMK AO2 SLP113 T01670128
KJST 210854Z AUTO 20007KT 10SM CLR 16/13 A2992 RMK AO2 SLP117 T01560128 58012
KJST 210754Z AUTO 19005KT 10SM CLR 16/12 A2993 RMK AO2 SLP122 T01560122
KJST 210654Z AUTO 18004KT 10SM FEW029 16/12 A2995 RMK AO2 SLP129 T01560122
KJST 210651Z AUTO 18004KT 10SM SCT029 16/12 A2995 RMK AO2
KJST 210633Z AUTO 18005KT 10SM OVC029 17/12 A2996 RMK AO2 T01670122
KJST 210554Z AUTO 18007KT 10SM FEW033 BKN060 17/12 A2999 RMK AO2 SLP143 T01670122 10194 20161 58024
KJST 210454Z AUTO 19007KT 10SM CLR 17/12 A3002 RMK AO2 SLP152 T01720122 402440133
KJST 210354Z AUTO 18007KT 10SM CLR 17/12 A3004 RMK AO2 SLP162 T01720122
KJST 210254Z AUTO 18008KT 10SM FEW060 SCT075 18/12 A3006 RMK AO2 SLP170 T01780122 52010
KJST 210154Z AUTO 16011KT 10SM FEW050 18/13 A3006 RMK AO2 SLP171 T01780128
KJST 210054Z AUTO 16009KT 10SM CLR 18/12 A3004 RMK AO2 SLP164 T01830122